SLCO/CIJ METAR and TAF weather

Enter ICAO airport designator
Station Type Date Time Source
SLCO METAR 2021/01/21 23:00 UTC NOAA

SLCO 212300Z 10004KT 9999 SCT027 32/24 Q1007


Station Type Date Time Source
SLCO Decoded METAR 2021/01/21 23:00 UTC NOAA

Cobija, Bolivia (SLCO) 11-02S 068-47W 260M
Jan 21, 2021 - 06:00 PM EST / 2021.01.21 2300 UTC
Wind: from the E (100 degrees) at 5 MPH (4 KT):0
Visibility: greater than 7 mile(s):0
Sky conditions: partly cloudy
Temperature: 89 F (32 C)
Heat index: 98.4 F (36.9 C):1
Dew Point: 75 F (24 C)
Relative Humidity: 62%
Pressure (altimeter): 29.74 in. Hg (1007 hPa)
ob: SLCO 212300Z 10004KT 9999 SCT027 32/24 Q1007
cycle: 23

Station Type Date Time Source
SLCO TAF 2021/01/22 06:51 UTC NOAA

TAF TAF SLCO 220450Z 2206/2306 00000KT 9999 SCT020 TX34/2220Z TN23/2210Z
BECMG 2216/2218 30008KT
BECMG 2300/2302 00000KT

Example: see airport list